sensor_id;sensor_type;location;lat;lon;timestamp;pressure;altitude;pressure_sealevel;temperature;humidity
12215;BME280;6170;42.206;24.142;2023-04-27T00:00:59;98392.88;;;11.55;61.99
12215;BME280;6170;42.206;24.142;2023-04-27T00:03:27;98384.31;;;11.64;62.14
12215;BME280;6170;42.206;24.142;2023-04-27T00:05:53;98390.78;;;11.57;62.10
12215;BME280;6170;42.206;24.142;2023-04-27T00:08:21;98382.75;;;11.57;62.12
12215;BME280;6170;42.206;24.142;2023-04-27T00:10:49;98387.66;;;11.60;61.91
12215;BME280;6170;42.206;24.142;2023-04-27T00:13:16;98390.13;;;11.61;61.46
12215;BME280;6170;42.206;24.142;2023-04-27T00:15:43;98398.75;;;11.70;60.85
12215;BME280;6170;42.206;24.142;2023-04-27T00:18:10;98399.28;;;11.54;61.31
12215;BME280;6170;42.206;24.142;2023-04-27T00:20:37;98397.72;;;11.71;60.02
12215;BME280;6170;42.206;24.142;2023-04-27T00:23:04;98381.66;;;11.64;60.09
12215;BME280;6170;42.206;24.142;2023-04-27T00:25:31;98413.81;;;11.71;60.93
12215;BME280;6170;42.206;24.142;2023-04-27T00:28:00;98391.00;;;11.55;60.09
12215;BME280;6170;42.206;24.142;2023-04-27T00:30:27;98389.28;;;11.67;60.18
12215;BME280;6170;42.206;24.142;2023-04-27T00:32:54;98398.09;;;11.50;60.08
12215;BME280;6170;42.206;24.142;2023-04-27T00:35:21;98402.56;;;11.56;60.10
12215;BME280;6170;42.206;24.142;2023-04-27T00:37:47;98404.00;;;11.58;59.94
12215;BME280;6170;42.206;24.142;2023-04-27T00:40:14;98405.59;;;11.66;59.78
12215;BME280;6170;42.206;24.142;2023-04-27T00:42:41;98401.31;;;11.58;60.19
12215;BME280;6170;42.206;24.142;2023-04-27T00:45:10;98398.00;;;11.63;60.54
12215;BME280;6170;42.206;24.142;2023-04-27T00:47:38;98419.22;;;11.64;60.28
12215;BME280;6170;42.206;24.142;2023-04-27T00:50:05;98435.03;;;11.79;60.47
12215;BME280;6170;42.206;24.142;2023-04-27T00:52:35;98427.00;;;11.79;60.84
12215;BME280;6170;42.206;24.142;2023-04-27T00:55:03;98407.09;;;11.55;60.14
12215;BME280;6170;42.206;24.142;2023-04-27T00:57:30;98410.34;;;11.64;60.35
12215;BME280;6170;42.206;24.142;2023-04-27T00:59:59;98390.91;;;11.44;60.24
12215;BME280;6170;42.206;24.142;2023-04-27T01:02:28;98412.25;;;11.57;60.09
12215;BME280;6170;42.206;24.142;2023-04-27T01:04:55;98416.59;;;11.58;60.20
12215;BME280;6170;42.206;24.142;2023-04-27T01:07:24;98416.03;;;11.49;60.11
12215;BME280;6170;42.206;24.142;2023-04-27T01:09:51;98415.47;;;11.41;60.88
12215;BME280;6170;42.206;24.142;2023-04-27T01:12:18;98415.47;;;11.41;60.85
12215;BME280;6170;42.206;24.142;2023-04-27T01:14:45;98414.78;;;11.52;59.26
12215;BME280;6170;42.206;24.142;2023-04-27T01:17:12;98420.88;;;11.72;59.89
12215;BME280;6170;42.206;24.142;2023-04-27T01:19:41;98430.09;;;11.45;60.51
12215;BME280;6170;42.206;24.142;2023-04-27T01:22:09;98418.19;;;11.34;60.48
12215;BME280;6170;42.206;24.142;2023-04-27T01:24:37;98425.41;;;11.34;60.57
12215;BME280;6170;42.206;24.142;2023-04-27T01:27:04;98413.84;;;11.40;60.71
12215;BME280;6170;42.206;24.142;2023-04-27T01:29:31;98431.56;;;11.41;60.42
12215;BME280;6170;42.206;24.142;2023-04-27T01:31:58;98418.94;;;11.48;60.31
12215;BME280;6170;42.206;24.142;2023-04-27T01:34:25;98428.50;;;11.37;60.03
12215;BME280;6170;42.206;24.142;2023-04-27T01:36:52;98430.38;;;11.30;60.36
12215;BME280;6170;42.206;24.142;2023-04-27T01:39:19;98431.75;;;11.46;60.20
12215;BME280;6170;42.206;24.142;2023-04-27T01:41:47;98432.06;;;11.56;59.93
12215;BME280;6170;42.206;24.142;2023-04-27T01:44:14;98445.00;;;11.34;60.11
12215;BME280;6170;42.206;24.142;2023-04-27T01:46:41;98447.94;;;11.33;60.18
12215;BME280;6170;42.206;24.142;2023-04-27T01:49:08;98446.84;;;11.40;60.63
12215;BME280;6170;42.206;24.142;2023-04-27T01:51:35;98467.00;;;11.49;60.33
12215;BME280;6170;42.206;24.142;2023-04-27T01:54:02;98454.97;;;11.27;60.19
12215;BME280;6170;42.206;24.142;2023-04-27T01:56:29;98470.69;;;11.55;59.85
12215;BME280;6170;42.206;24.142;2023-04-27T01:58:57;98452.13;;;11.53;59.66
12215;BME280;6170;42.206;24.142;2023-04-27T02:01:24;98452.69;;;11.62;59.09
12215;BME280;6170;42.206;24.142;2023-04-27T02:03:51;98459.25;;;11.66;59.29
12215;BME280;6170;42.206;24.142;2023-04-27T02:06:18;98449.81;;;11.57;58.77
12215;BME280;6170;42.206;24.142;2023-04-27T02:08:45;98480.16;;;11.57;59.43
12215;BME280;6170;42.206;24.142;2023-04-27T02:11:12;98452.97;;;11.47;58.85
12215;BME280;6170;42.206;24.142;2023-04-27T02:13:39;98454.50;;;11.37;60.17
12215;BME280;6170;42.206;24.142;2023-04-27T02:16:07;98449.53;;;11.40;59.36
12215;BME280;6170;42.206;24.142;2023-04-27T02:18:34;98477.25;;;11.27;59.97
12215;BME280;6170;42.206;24.142;2023-04-27T02:21:07;98453.00;;;11.09;60.33
12215;BME280;6170;42.206;24.142;2023-04-27T02:23:33;98490.84;;;11.33;59.80
12215;BME280;6170;42.206;24.142;2023-04-27T02:26:01;98457.72;;;11.07;60.29
12215;BME280;6170;42.206;24.142;2023-04-27T02:28:28;98461.44;;;11.13;59.90
12215;BME280;6170;42.206;24.142;2023-04-27T02:30:55;98491.22;;;11.36;60.17
12215;BME280;6170;42.206;24.142;2023-04-27T02:33:23;98469.97;;;11.35;60.39
12215;BME280;6170;42.206;24.142;2023-04-27T02:35:50;98469.66;;;11.18;59.96
12215;BME280;6170;42.206;24.142;2023-04-27T02:38:17;98465.19;;;10.99;60.28
12215;BME280;6170;42.206;24.142;2023-04-27T02:40:44;98467.63;;;11.13;60.13
12215;BME280;6170;42.206;24.142;2023-04-27T02:43:11;98473.81;;;11.07;60.27
12215;BME280;6170;42.206;24.142;2023-04-27T02:45:38;98478.97;;;11.09;60.09
12215;BME280;6170;42.206;24.142;2023-04-27T02:48:05;98470.78;;;10.97;60.26
12215;BME280;6170;42.206;24.142;2023-04-27T02:50:39;98480.38;;;11.18;60.13
12215;BME280;6170;42.206;24.142;2023-04-27T02:53:06;98483.50;;;11.08;60.15
12215;BME280;6170;42.206;24.142;2023-04-27T02:55:33;98484.78;;;11.06;61.06
12215;BME280;6170;42.206;24.142;2023-04-27T02:58:00;98483.91;;;11.12;60.90
12215;BME280;6170;42.206;24.142;2023-04-27T03:00:27;98496.13;;;11.01;60.08
12215;BME280;6170;42.206;24.142;2023-04-27T03:02:54;98478.09;;;10.70;60.28
12215;BME280;6170;42.206;24.142;2023-04-27T03:05:24;98494.09;;;10.97;60.48
12215;BME280;6170;42.206;24.142;2023-04-27T03:07:54;98498.78;;;11.08;59.47
12215;BME280;6170;42.206;24.142;2023-04-27T03:10:21;98500.69;;;10.94;59.18
12215;BME280;6170;42.206;24.142;2023-04-27T03:12:47;98492.44;;;10.89;59.70
12215;BME280;6170;42.206;24.142;2023-04-27T03:15:14;98494.97;;;10.84;59.33
12215;BME280;6170;42.206;24.142;2023-04-27T03:17:41;98505.00;;;11.02;57.88
12215;BME280;6170;42.206;24.142;2023-04-27T03:20:09;98500.69;;;10.94;59.45
12215;BME280;6170;42.206;24.142;2023-04-27T03:22:37;98533.91;;;10.87;59.10
12215;BME280;6170;42.206;24.142;2023-04-27T03:25:06;98535.72;;;11.06;59.55
12215;BME280;6170;42.206;24.142;2023-04-27T03:27:33;98507.94;;;10.80;59.54
12215;BME280;6170;42.206;24.142;2023-04-27T03:30:00;98508.16;;;10.79;59.18
12215;BME280;6170;42.206;24.142;2023-04-27T03:32:27;98511.63;;;10.93;57.92
12215;BME280;6170;42.206;24.142;2023-04-27T03:34:54;98511.44;;;10.81;58.54
12215;BME280;6170;42.206;24.142;2023-04-27T03:37:21;98510.63;;;10.80;57.98
12215;BME280;6170;42.206;24.142;2023-04-27T03:39:49;98520.94;;;10.77;58.60
12215;BME280;6170;42.206;24.142;2023-04-27T03:42:17;98523.19;;;10.87;58.86
12215;BME280;6170;42.206;24.142;2023-04-27T03:44:44;98524.22;;;10.92;57.96
12215;BME280;6170;42.206;24.142;2023-04-27T03:47:11;98523.78;;;10.95;58.21
12215;BME280;6170;42.206;24.142;2023-04-27T03:49:38;98522.34;;;10.86;58.53
12215;BME280;6170;42.206;24.142;2023-04-27T03:52:04;98534.31;;;10.97;57.64
12215;BME280;6170;42.206;24.142;2023-04-27T03:54:31;98529.09;;;11.08;57.81
12215;BME280;6170;42.206;24.142;2023-04-27T03:56:58;98532.84;;;10.94;57.46
12215;BME280;6170;42.206;24.142;2023-04-27T03:59:29;98540.72;;;10.76;58.08
12215;BME280;6170;42.206;24.142;2023-04-27T04:01:56;98537.66;;;10.79;58.38
12215;BME280;6170;42.206;24.142;2023-04-27T04:04:23;98549.16;;;10.93;58.40
12215;BME280;6170;42.206;24.142;2023-04-27T04:06:50;98553.94;;;10.84;57.86
12215;BME280;6170;42.206;24.142;2023-04-27T04:09:16;98545.25;;;10.75;57.62
12215;BME280;6170;42.206;24.142;2023-04-27T04:11:43;98579.00;;;11.03;57.40
12215;BME280;6170;42.206;24.142;2023-04-27T04:14:10;98542.41;;;10.64;58.07
12215;BME280;6170;42.206;24.142;2023-04-27T04:16:39;98532.88;;;10.81;57.57
12215;BME280;6170;42.206;24.142;2023-04-27T04:19:06;98562.75;;;10.85;58.17
12215;BME280;6170;42.206;24.142;2023-04-27T04:21:33;98563.81;;;10.84;57.88
12215;BME280;6170;42.206;24.142;2023-04-27T04:24:00;98565.66;;;10.83;57.90
12215;BME280;6170;42.206;24.142;2023-04-27T04:26:27;98571.84;;;10.97;57.41
12215;BME280;6170;42.206;24.142;2023-04-27T04:28:55;98564.44;;;10.72;57.43
12215;BME280;6170;42.206;24.142;2023-04-27T04:31:22;98566.28;;;10.78;57.26
12215;BME280;6170;42.206;24.142;2023-04-27T04:33:50;98608.31;;;10.98;57.32
12215;BME280;6170;42.206;24.142;2023-04-27T04:36:17;98577.84;;;10.72;57.50
12215;BME280;6170;42.206;24.142;2023-04-27T04:38:44;98579.03;;;10.96;56.92
12215;BME280;6170;42.206;24.142;2023-04-27T04:41:11;98610.16;;;11.10;57.42
12215;BME280;6170;42.206;24.142;2023-04-27T04:43:38;98574.50;;;10.90;57.35
12215;BME280;6170;42.206;24.142;2023-04-27T04:46:05;98587.47;;;10.93;56.16
12215;BME280;6170;42.206;24.142;2023-04-27T04:48:32;98591.63;;;10.96;56.47
12215;BME280;6170;42.206;24.142;2023-04-27T04:51:03;98628.66;;;11.32;56.68
12215;BME280;6170;42.206;24.142;2023-04-27T04:53:30;98610.72;;;11.25;56.05
12215;BME280;6170;42.206;24.142;2023-04-27T04:56:07;98602.25;;;11.28;55.97
12215;BME280;6170;42.206;24.142;2023-04-27T04:58:34;98634.03;;;11.25;56.57
12215;BME280;6170;42.206;24.142;2023-04-27T05:01:01;98603.34;;;11.08;56.70
12215;BME280;6170;42.206;24.142;2023-04-27T05:03:27;98596.28;;;11.26;56.36
12215;BME280;6170;42.206;24.142;2023-04-27T05:05:54;98618.97;;;11.31;56.52
12215;BME280;6170;42.206;24.142;2023-04-27T05:08:23;98607.56;;;11.48;56.67
12215;BME280;6170;42.206;24.142;2023-04-27T05:10:50;98621.41;;;11.45;56.75
12215;BME280;6170;42.206;24.142;2023-04-27T05:13:17;98617.63;;;11.73;56.21
12215;BME280;6170;42.206;24.142;2023-04-27T05:15:44;98616.28;;;11.95;55.13
12215;BME280;6170;42.206;24.142;2023-04-27T05:18:11;98611.84;;;12.07;54.54
12215;BME280;6170;42.206;24.142;2023-04-27T05:20:38;98619.53;;;11.97;56.11
12215;BME280;6170;42.206;24.142;2023-04-27T05:23:06;98626.84;;;11.83;56.13
12215;BME280;6170;42.206;24.142;2023-04-27T05:25:34;98639.09;;;12.10;55.35
12215;BME280;6170;42.206;24.142;2023-04-27T05:28:06;98615.78;;;11.53;55.74
12215;BME280;6170;42.206;24.142;2023-04-27T05:30:33;98616.16;;;11.77;55.84
12215;BME280;6170;42.206;24.142;2023-04-27T05:33:00;98633.09;;;11.77;56.27
12215;BME280;6170;42.206;24.142;2023-04-27T05:35:27;98634.72;;;11.65;55.67
12215;BME280;6170;42.206;24.142;2023-04-27T05:37:54;98635.28;;;11.87;55.90
12215;BME280;6170;42.206;24.142;2023-04-27T05:40:21;98632.88;;;12.17;55.33
12215;BME280;6170;42.206;24.142;2023-04-27T05:42:49;98634.56;;;12.04;56.34
12215;BME280;6170;42.206;24.142;2023-04-27T05:45:16;98658.69;;;12.49;54.59
12215;BME280;6170;42.206;24.142;2023-04-27T05:47:43;98634.53;;;12.11;56.70
12215;BME280;6170;42.206;24.142;2023-04-27T05:50:10;98644.75;;;12.34;56.13
12215;BME280;6170;42.206;24.142;2023-04-27T05:52:37;98641.81;;;12.35;55.16
12215;BME280;6170;42.206;24.142;2023-04-27T05:55:05;98649.75;;;12.55;55.14
12215;BME280;6170;42.206;24.142;2023-04-27T05:57:33;98639.91;;;12.74;53.37
12215;BME280;6170;42.206;24.142;2023-04-27T06:00:01;98652.28;;;12.99;53.61
12215;BME280;6170;42.206;24.142;2023-04-27T06:02:32;98676.97;;;12.65;54.37
12215;BME280;6170;42.206;24.142;2023-04-27T06:04:59;98641.53;;;12.50;55.25
12215;BME280;6170;42.206;24.142;2023-04-27T06:07:26;98654.59;;;12.71;53.52
12215;BME280;6170;42.206;24.142;2023-04-27T06:09:53;98649.00;;;12.73;52.91
12215;BME280;6170;42.206;24.142;2023-04-27T06:12:20;98637.00;;;12.44;53.08
12215;BME280;6170;42.206;24.142;2023-04-27T06:14:47;98653.69;;;12.52;54.05
12215;BME280;6170;42.206;24.142;2023-04-27T06:17:15;98643.00;;;12.71;53.21
12215;BME280;6170;42.206;24.142;2023-04-27T06:19:42;98643.19;;;13.00;53.60
12215;BME280;6170;42.206;24.142;2023-04-27T06:22:09;98650.84;;;12.97;52.52
12215;BME280;6170;42.206;24.142;2023-04-27T06:24:37;98677.47;;;13.30;52.48
12215;BME280;6170;42.206;24.142;2023-04-27T06:27:03;98649.81;;;13.23;51.31
12215;BME280;6170;42.206;24.142;2023-04-27T06:29:30;98649.50;;;13.13;51.94
12215;BME280;6170;42.206;24.142;2023-04-27T06:31:57;98646.75;;;13.37;52.39
12215;BME280;6170;42.206;24.142;2023-04-27T06:34:26;98655.81;;;13.43;52.23
12215;BME280;6170;42.206;24.142;2023-04-27T06:36:53;98645.09;;;13.73;51.97
12215;BME280;6170;42.206;24.142;2023-04-27T06:39:20;98641.22;;;13.32;50.84
12215;BME280;6170;42.206;24.142;2023-04-27T06:41:47;98651.16;;;13.68;50.80
12215;BME280;6170;42.206;24.142;2023-04-27T06:44:13;98652.44;;;13.29;52.02
12215;BME280;6170;42.206;24.142;2023-04-27T06:46:40;98657.66;;;13.24;51.22
12215;BME280;6170;42.206;24.142;2023-04-27T06:49:07;98646.00;;;13.30;50.24
12215;BME280;6170;42.206;24.142;2023-04-27T06:51:35;98651.25;;;13.62;51.12
12215;BME280;6170;42.206;24.142;2023-04-27T06:54:03;98662.75;;;13.32;49.80
12215;BME280;6170;42.206;24.142;2023-04-27T06:56:30;98654.22;;;13.90;51.05
12215;BME280;6170;42.206;24.142;2023-04-27T06:58:56;98652.59;;;14.19;49.41
12215;BME280;6170;42.206;24.142;2023-04-27T07:01:24;98659.44;;;14.51;50.32
12215;BME280;6170;42.206;24.142;2023-04-27T07:03:50;98658.25;;;14.59;48.63
12215;BME280;6170;42.206;24.142;2023-04-27T07:06:17;98670.09;;;14.58;49.89
12215;BME280;6170;42.206;24.142;2023-04-27T07:08:46;98658.88;;;14.72;49.20
12215;BME280;6170;42.206;24.142;2023-04-27T07:11:12;98656.41;;;14.71;48.79
12215;BME280;6170;42.206;24.142;2023-04-27T07:13:40;98642.59;;;15.02;48.90
12215;BME280;6170;42.206;24.142;2023-04-27T07:16:07;98653.97;;;14.81;50.10
12215;BME280;6170;42.206;24.142;2023-04-27T07:18:34;98657.06;;;15.31;48.45
12215;BME280;6170;42.206;24.142;2023-04-27T07:21:01;98638.94;;;15.32;48.45
12215;BME280;6170;42.206;24.142;2023-04-27T07:23:28;98645.06;;;15.27;48.33
12215;BME280;6170;42.206;24.142;2023-04-27T07:25:56;98652.63;;;16.16;49.14
12215;BME280;6170;42.206;24.142;2023-04-27T07:28:23;98648.69;;;16.07;47.49
12215;BME280;6170;42.206;24.142;2023-04-27T07:30:50;98643.53;;;15.66;48.89
12215;BME280;6170;42.206;24.142;2023-04-27T07:33:17;98647.53;;;15.52;48.20
12215;BME280;6170;42.206;24.142;2023-04-27T07:35:44;98643.19;;;15.51;48.52
12215;BME280;6170;42.206;24.142;2023-04-27T07:38:11;98643.75;;;15.41;47.56
12215;BME280;6170;42.206;24.142;2023-04-27T07:40:38;98645.28;;;15.49;47.64
12215;BME280;6170;42.206;24.142;2023-04-27T07:43:06;98640.91;;;15.83;46.31
12215;BME280;6170;42.206;24.142;2023-04-27T07:45:33;98630.06;;;16.84;47.75
12215;BME280;6170;42.206;24.142;2023-04-27T07:48:04;98635.44;;;17.18;45.12
12215;BME280;6170;42.206;24.142;2023-04-27T07:50:31;98632.91;;;17.66;45.23
12215;BME280;6170;42.206;24.142;2023-04-27T07:52:58;98645.00;;;18.02;44.49
12215;BME280;6170;42.206;24.142;2023-04-27T07:55:26;98634.00;;;17.87;43.37
12215;BME280;6170;42.206;24.142;2023-04-27T07:57:53;98631.00;;;18.10;43.29
12215;BME280;6170;42.206;24.142;2023-04-27T08:00:23;98635.91;;;18.62;43.51
12215;BME280;6170;42.206;24.142;2023-04-27T08:02:53;98625.09;;;18.67;42.17
12215;BME280;6170;42.206;24.142;2023-04-27T08:05:20;98634.41;;;18.76;43.99
12215;BME280;6170;42.206;24.142;2023-04-27T08:07:47;98632.53;;;19.55;42.53
12215;BME280;6170;42.206;24.142;2023-04-27T08:10:14;98630.72;;;19.76;40.83
12215;BME280;6170;42.206;24.142;2023-04-27T08:12:41;98635.91;;;19.36;40.24
12215;BME280;6170;42.206;24.142;2023-04-27T08:15:09;98627.38;;;18.80;42.45
12215;BME280;6170;42.206;24.142;2023-04-27T08:17:38;98625.66;;;19.43;42.39
12215;BME280;6170;42.206;24.142;2023-04-27T08:20:07;98624.56;;;18.70;43.66
12215;BME280;6170;42.206;24.142;2023-04-27T08:22:35;98618.19;;;19.70;43.55
12215;BME280;6170;42.206;24.142;2023-04-27T08:25:03;98623.22;;;19.98;41.82
12215;BME280;6170;42.206;24.142;2023-04-27T08:27:30;98619.31;;;19.32;43.12
12215;BME280;6170;42.206;24.142;2023-04-27T08:29:57;98609.84;;;18.61;41.06
12215;BME280;6170;42.206;24.142;2023-04-27T08:32:26;98602.34;;;19.47;41.71
12215;BME280;6170;42.206;24.142;2023-04-27T08:34:54;98612.78;;;19.75;41.75
12215;BME280;6170;42.206;24.142;2023-04-27T08:37:21;98606.94;;;20.13;42.21
12215;BME280;6170;42.206;24.142;2023-04-27T08:39:48;98614.66;;;20.77;41.96
12215;BME280;6170;42.206;24.142;2023-04-27T08:42:15;98637.72;;;20.29;42.17
12215;BME280;6170;42.206;24.142;2023-04-27T08:44:43;98613.75;;;18.75;43.44
12215;BME280;6170;42.206;24.142;2023-04-27T08:47:10;98625.53;;;18.05;43.13
12215;BME280;6170;42.206;24.142;2023-04-27T08:49:37;98624.97;;;19.20;45.01
12215;BME280;6170;42.206;24.142;2023-04-27T08:52:12;98640.41;;;19.15;42.22
12215;BME280;6170;42.206;24.142;2023-04-27T08:54:39;98632.13;;;18.41;43.36
12215;BME280;6170;42.206;24.142;2023-04-27T08:57:10;98619.94;;;17.30;43.86
12215;BME280;6170;42.206;24.142;2023-04-27T08:59:37;98625.84;;;17.27;45.49
12215;BME280;6170;42.206;24.142;2023-04-27T09:02:05;98619.41;;;16.94;45.62
12215;BME280;6170;42.206;24.142;2023-04-27T09:04:38;98622.38;;;16.93;45.84
12215;BME280;6170;42.206;24.142;2023-04-27T09:07:11;98637.78;;;19.30;41.32
12215;BME280;6170;42.206;24.142;2023-04-27T09:09:38;98627.94;;;18.82;42.42
12215;BME280;6170;42.206;24.142;2023-04-27T09:12:13;98619.25;;;17.39;43.79
12215;BME280;6170;42.206;24.142;2023-04-27T09:14:42;98626.09;;;17.08;44.89
12215;BME280;6170;42.206;24.142;2023-04-27T09:17:09;98625.13;;;17.15;44.59
12215;BME280;6170;42.206;24.142;2023-04-27T09:19:36;98622.97;;;17.33;44.55
12215;BME280;6170;42.206;24.142;2023-04-27T09:22:04;98622.66;;;17.30;44.63
12215;BME280;6170;42.206;24.142;2023-04-27T09:24:33;98632.06;;;17.27;44.10
12215;BME280;6170;42.206;24.142;2023-04-27T09:27:00;98620.69;;;17.25;43.21
12215;BME280;6170;42.206;24.142;2023-04-27T09:29:37;98653.25;;;17.14;43.75
12215;BME280;6170;42.206;24.142;2023-04-27T09:32:13;98629.97;;;17.51;44.13
12215;BME280;6170;42.206;24.142;2023-04-27T09:34:42;98620.84;;;17.74;43.13
12215;BME280;6170;42.206;24.142;2023-04-27T09:37:09;98617.13;;;17.41;43.51
12215;BME280;6170;42.206;24.142;2023-04-27T09:39:37;98610.63;;;17.42;42.76
12215;BME280;6170;42.206;24.142;2023-04-27T09:42:04;98615.31;;;17.47;42.96
12215;BME280;6170;42.206;24.142;2023-04-27T09:44:32;98601.03;;;17.35;41.99
12215;BME280;6170;42.206;24.142;2023-04-27T09:47:00;98629.34;;;17.61;42.76
12215;BME280;6170;42.206;24.142;2023-04-27T09:49:27;98606.75;;;17.17;42.67
12215;BME280;6170;42.206;24.142;2023-04-27T09:51:55;98614.22;;;17.10;41.97
12215;BME280;6170;42.206;24.142;2023-04-27T09:54:25;98597.53;;;17.18;43.18
12215;BME280;6170;42.206;24.142;2023-04-27T09:57:04;98611.56;;;17.53;44.72
12215;BME280;6170;42.206;24.142;2023-04-27T09:59:45;98591.50;;;17.92;42.31
12215;BME280;6170;42.206;24.142;2023-04-27T10:02:15;98595.72;;;18.05;41.70
12215;BME280;6170;42.206;24.142;2023-04-27T10:05:06;98599.63;;;17.71;41.96
12215;BME280;6170;42.206;24.142;2023-04-27T10:07:37;98583.28;;;18.09;42.02
12215;BME280;6170;42.206;24.142;2023-04-27T10:10:05;98604.22;;;17.70;41.37
12215;BME280;6170;42.206;24.142;2023-04-27T10:12:35;98615.91;;;18.46;40.88
12215;BME280;6170;42.206;24.142;2023-04-27T10:15:11;98597.59;;;19.32;42.81
12215;BME280;6170;42.206;24.142;2023-04-27T10:17:46;98599.63;;;20.29;40.24
12215;BME280;6170;42.206;24.142;2023-04-27T10:20:14;98586.44;;;19.28;39.80
12215;BME280;6170;42.206;24.142;2023-04-27T10:22:43;98573.69;;;18.02;40.83
12215;BME280;6170;42.206;24.142;2023-04-27T10:25:16;98565.91;;;18.05;41.78
12215;BME280;6170;42.206;24.142;2023-04-27T10:27:48;98590.16;;;19.59;40.39
12215;BME280;6170;42.206;24.142;2023-04-27T10:30:17;98578.22;;;19.70;38.84
12215;BME280;6170;42.206;24.142;2023-04-27T10:32:52;98584.72;;;20.62;39.58
12215;BME280;6170;42.206;24.142;2023-04-27T10:35:21;98590.94;;;20.37;38.11
12215;BME280;6170;42.206;24.142;2023-04-27T10:37:48;98587.44;;;20.47;39.74
12215;BME280;6170;42.206;24.142;2023-04-27T10:40:16;98567.81;;;19.52;38.21
12215;BME280;6170;42.206;24.142;2023-04-27T10:42:45;98580.25;;;20.05;40.49
12215;BME280;6170;42.206;24.142;2023-04-27T10:45:17;98595.59;;;20.42;38.23
12215;BME280;6170;42.206;24.142;2023-04-27T10:47:57;98584.19;;;20.75;37.02
12215;BME280;6170;42.206;24.142;2023-04-27T10:50:24;98577.06;;;20.94;38.35
12215;BME280;6170;42.206;24.142;2023-04-27T10:52:51;98585.22;;;21.04;39.19
12215;BME280;6170;42.206;24.142;2023-04-27T10:55:19;98580.34;;;20.86;36.98
12215;BME280;6170;42.206;24.142;2023-04-27T10:57:50;98581.72;;;21.14;37.59
12215;BME280;6170;42.206;24.142;2023-04-27T11:00:24;98559.91;;;21.09;35.98
12215;BME280;6170;42.206;24.142;2023-04-27T11:02:51;98579.25;;;21.13;38.19
12215;BME280;6170;42.206;24.142;2023-04-27T11:05:20;98585.25;;;21.20;36.85
12215;BME280;6170;42.206;24.142;2023-04-27T11:07:47;98579.75;;;21.40;36.96
12215;BME280;6170;42.206;24.142;2023-04-27T11:10:15;98558.56;;;21.06;38.02
12215;BME280;6170;42.206;24.142;2023-04-27T11:12:43;98566.16;;;21.10;36.24
12215;BME280;6170;42.206;24.142;2023-04-27T11:15:12;98559.06;;;21.03;36.92
12215;BME280;6170;42.206;24.142;2023-04-27T11:17:39;98565.19;;;19.67;38.63
12215;BME280;6170;42.206;24.142;2023-04-27T11:20:07;98562.28;;;18.90;39.48
12215;BME280;6170;42.206;24.142;2023-04-27T11:22:42;98576.28;;;20.63;39.15
12215;BME280;6170;42.206;24.142;2023-04-27T11:25:10;98575.41;;;20.28;38.57
12215;BME280;6170;42.206;24.142;2023-04-27T11:27:37;98576.25;;;20.38;37.11
12215;BME280;6170;42.206;24.142;2023-04-27T11:30:16;98565.38;;;20.84;37.19
12215;BME280;6170;42.206;24.142;2023-04-27T11:32:45;98574.28;;;21.45;38.84
12215;BME280;6170;42.206;24.142;2023-04-27T11:35:12;98576.81;;;20.96;40.32
12215;BME280;6170;42.206;24.142;2023-04-27T11:37:40;98577.06;;;20.99;39.79
12215;BME280;6170;42.206;24.142;2023-04-27T11:40:08;98579.19;;;20.11;40.60
12215;BME280;6170;42.206;24.142;2023-04-27T11:42:35;98556.88;;;20.14;40.63
12215;BME280;6170;42.206;24.142;2023-04-27T11:45:03;98566.41;;;20.12;39.11
12215;BME280;6170;42.206;24.142;2023-04-27T11:47:32;98578.19;;;20.43;38.91
12215;BME280;6170;42.206;24.142;2023-04-27T11:50:02;98580.34;;;20.86;38.65
12215;BME280;6170;42.206;24.142;2023-04-27T11:52:31;98572.81;;;19.76;36.92
12215;BME280;6170;42.206;24.142;2023-04-27T11:54:59;98569.91;;;20.02;36.42
12215;BME280;6170;42.206;24.142;2023-04-27T11:57:27;98579.13;;;19.86;37.52
12215;BME280;6170;42.206;24.142;2023-04-27T11:59:55;98581.97;;;19.49;36.75
12215;BME280;6170;42.206;24.142;2023-04-27T12:02:23;98590.22;;;19.27;39.57
12215;BME280;6170;42.206;24.142;2023-04-27T12:04:50;98584.00;;;19.32;40.12
12215;BME280;6170;42.206;24.142;2023-04-27T12:07:18;98579.25;;;18.70;41.74
12215;BME280;6170;42.206;24.142;2023-04-27T12:09:45;98573.91;;;18.22;40.40
12215;BME280;6170;42.206;24.142;2023-04-27T12:12:13;98576.09;;;18.52;40.71
12215;BME280;6170;42.206;24.142;2023-04-27T12:14:43;98584.59;;;18.33;40.09
12215;BME280;6170;42.206;24.142;2023-04-27T12:17:10;98577.44;;;18.49;40.28
12215;BME280;6170;42.206;24.142;2023-04-27T12:19:37;98570.56;;;18.15;40.59
12215;BME280;6170;42.206;24.142;2023-04-27T12:22:04;98584.50;;;18.23;40.54
12215;BME280;6170;42.206;24.142;2023-04-27T12:24:33;98609.59;;;17.87;39.95
12215;BME280;6170;42.206;24.142;2023-04-27T12:27:00;98575.44;;;17.86;40.94
12215;BME280;6170;42.206;24.142;2023-04-27T12:29:27;98561.50;;;17.56;42.18
12215;BME280;6170;42.206;24.142;2023-04-27T12:31:57;98577.53;;;17.79;41.86
12215;BME280;6170;42.206;24.142;2023-04-27T12:34:24;98571.53;;;17.55;40.28
12215;BME280;6170;42.206;24.142;2023-04-27T12:36:51;98575.13;;;17.82;39.86
12215;BME280;6170;42.206;24.142;2023-04-27T12:39:20;98581.41;;;17.88;40.97
12215;BME280;6170;42.206;24.142;2023-04-27T12:41:51;98582.06;;;17.73;40.39
12215;BME280;6170;42.206;24.142;2023-04-27T12:44:19;98600.44;;;17.93;40.79
12215;BME280;6170;42.206;24.142;2023-04-27T12:46:46;98578.69;;;17.88;40.32
12215;BME280;6170;42.206;24.142;2023-04-27T12:49:13;98575.16;;;17.44;40.45
12215;BME280;6170;42.206;24.142;2023-04-27T12:51:41;98584.47;;;16.93;41.31
12215;BME280;6170;42.206;24.142;2023-04-27T12:54:08;98581.56;;;17.16;40.88
12215;BME280;6170;42.206;24.142;2023-04-27T12:56:37;98601.44;;;18.09;41.55
12215;BME280;6170;42.206;24.142;2023-04-27T12:59:05;98571.56;;;18.30;41.08
12215;BME280;6170;42.206;24.142;2023-04-27T13:01:32;98605.38;;;18.23;40.52
12215;BME280;6170;42.206;24.142;2023-04-27T13:04:00;98591.97;;;17.63;41.07